createdAt,value
2023-05-21T00:01:05.705Z,8.73
2023-05-21T00:04:09.011Z,9.40
2023-05-21T00:07:12.649Z,8.50
2023-05-21T00:10:16.015Z,8.53
2023-05-21T00:13:20.650Z,8.43
2023-05-21T00:16:24.158Z,9.07
2023-05-21T00:19:27.973Z,9.67
2023-05-21T00:22:33.662Z,8.37
2023-05-21T00:25:37.203Z,9.07
2023-05-21T00:28:41.872Z,9.10
2023-05-21T00:31:45.145Z,8.87
2023-05-21T00:34:48.393Z,7.13
2023-05-21T00:37:52.029Z,8.57
2023-05-21T00:40:55.323Z,7.73
2023-05-21T00:44:00.360Z,9.27
2023-05-21T00:47:03.830Z,8.10
2023-05-21T00:50:07.978Z,8.17
2023-05-21T00:53:11.271Z,8.80
2023-05-21T00:56:14.635Z,8.70
2023-05-21T00:59:19.478Z,7.83
2023-05-21T01:02:24.353Z,8.23
2023-05-21T01:05:28.473Z,7.77
2023-05-21T01:08:31.816Z,6.87
2023-05-21T01:11:39.806Z,7.90
2023-05-21T01:14:44.998Z,7.97
2023-05-21T01:17:51.490Z,8.07
2023-05-21T01:20:55.168Z,7.70
2023-05-21T01:23:59.781Z,7.57
2023-05-21T01:27:06.564Z,6.97
2023-05-21T01:30:10.687Z,7.57
2023-05-21T01:33:17.300Z,7.67
2023-05-21T01:36:24.066Z,7.30
2023-05-21T01:39:29.839Z,7.50
2023-05-21T01:42:33.897Z,7.80
2023-05-21T01:45:38.381Z,7.80
2023-05-21T01:48:43.465Z,8.03
2023-05-21T01:51:46.911Z,7.70
2023-05-21T01:54:51.466Z,7.23
2023-05-21T01:57:55.264Z,7.33
2023-05-21T02:00:58.497Z,7.13
2023-05-21T02:04:02.011Z,6.57
2023-05-21T02:07:05.354Z,7.37
2023-05-21T02:10:10.570Z,7.23
2023-05-21T02:13:13.816Z,7.43
2023-05-21T02:16:17.224Z,7.00
2023-05-21T02:19:20.705Z,7.67
2023-05-21T02:22:24.004Z,8.03
2023-05-21T02:25:28.624Z,7.50
2023-05-21T02:28:32.701Z,6.93
2023-05-21T02:31:35.965Z,7.50
2023-05-21T02:34:42.294Z,6.83
2023-05-21T02:37:45.575Z,7.77
2023-05-21T02:40:50.676Z,7.27
2023-05-21T02:43:53.904Z,7.47
2023-05-21T02:46:57.122Z,7.50
2023-05-21T02:50:02.789Z,7.03
2023-05-21T02:53:06.225Z,7.53
2023-05-21T02:56:12.470Z,7.67
2023-05-21T02:59:15.762Z,7.60
2023-05-21T03:02:19.197Z,7.37
2023-05-21T03:05:22.711Z,7.70
2023-05-21T03:08:26.448Z,7.20
2023-05-21T03:11:31.004Z,7.70
2023-05-21T03:14:35.408Z,7.67
2023-05-21T03:17:38.926Z,7.40
2023-05-21T03:20:44.321Z,7.33
2023-05-21T03:23:47.752Z,7.47
2023-05-21T03:26:52.482Z,7.73
2023-05-21T03:29:56.038Z,7.23
2023-05-21T03:32:59.845Z,7.20
2023-05-21T03:36:03.152Z,7.27
2023-05-21T03:39:06.900Z,6.93
2023-05-21T03:42:13.278Z,7.43
2023-05-21T03:45:16.510Z,7.87
2023-05-21T03:48:19.754Z,7.50
2023-05-21T03:51:22.989Z,7.57
2023-05-21T03:54:26.250Z,7.70
2023-05-21T03:57:30.927Z,6.77
2023-05-21T04:00:34.520Z,6.60
2023-05-21T04:03:40.101Z,7.40
2023-05-21T04:06:44.175Z,7.50
2023-05-21T04:09:47.416Z,7.03
2023-05-21T04:12:52.350Z,7.80
2023-05-21T04:15:55.771Z,7.80
2023-05-21T04:18:59.012Z,7.27
2023-05-21T04:22:03.090Z,7.87
2023-05-21T04:25:06.644Z,7.57
2023-05-21T04:28:11.197Z,6.97
2023-05-21T04:31:14.493Z,7.40
2023-05-21T04:34:18.845Z,6.77
2023-05-21T04:37:24.574Z,8.10
2023-05-21T04:40:27.824Z,6.97
2023-05-21T04:43:32.386Z,6.93
2023-05-21T04:46:35.838Z,7.43
2023-05-21T04:49:39.141Z,7.27
2023-05-21T04:52:42.437Z,7.50
2023-05-21T04:55:46.997Z,7.50
2023-05-21T04:58:51.574Z,7.37
2023-05-21T05:01:54.871Z,7.37
2023-05-21T05:04:59.833Z,8.00
2023-05-21T05:08:04.070Z,7.10
2023-05-21T05:11:07.310Z,6.87
2023-05-21T05:14:11.853Z,7.20
2023-05-21T05:17:15.673Z,6.60
2023-05-21T05:20:19.042Z,7.10
2023-05-21T05:23:22.259Z,7.13
2023-05-21T05:26:25.496Z,7.67
2023-05-21T05:29:30.099Z,7.73
2023-05-21T05:32:33.399Z,7.57
2023-05-21T05:35:37.023Z,7.57
2023-05-21T05:38:40.690Z,6.83
2023-05-21T05:41:43.911Z,6.33
2023-05-21T05:44:48.484Z,7.17
2023-05-21T05:47:51.722Z,6.97
2023-05-21T05:50:56.980Z,6.40
2023-05-21T05:54:00.218Z,7.43
2023-05-21T05:57:03.534Z,7.57
2023-05-21T06:00:10.461Z,7.30
2023-05-21T06:03:13.996Z,7.53
2023-05-21T06:06:17.985Z,7.40
2023-05-21T06:09:22.080Z,6.30
2023-05-21T06:12:25.282Z,6.50
2023-05-21T06:15:29.959Z,7.20
2023-05-21T06:18:33.216Z,7.17
2023-05-21T06:21:36.500Z,6.80
2023-05-21T06:24:39.746Z,7.17
2023-05-21T06:27:42.987Z,6.33
2023-05-21T06:30:47.617Z,7.00
2023-05-21T06:33:51.161Z,6.83
2023-05-21T06:36:54.575Z,6.63
2023-05-21T06:39:57.838Z,6.40
2023-05-21T06:43:01.037Z,5.93
2023-05-21T06:46:05.577Z,6.53
2023-05-21T06:49:08.814Z,6.30
2023-05-21T06:52:12.186Z,5.80
2023-05-21T06:55:15.384Z,6.40
2023-05-21T06:58:18.608Z,6.50
2023-05-21T07:01:23.324Z,6.87
2023-05-21T07:04:26.651Z,6.97
2023-05-21T07:07:29.869Z,6.60
2023-05-21T07:10:33.087Z,6.20
2023-05-21T07:13:36.806Z,6.97
2023-05-21T07:16:41.427Z,6.47
2023-05-21T07:19:44.749Z,6.20
2023-05-21T07:22:47.971Z,5.83
2023-05-21T07:25:51.230Z,5.90
2023-05-21T07:28:54.455Z,6.70
2023-05-21T07:31:59.263Z,6.03
2023-05-21T07:35:02.959Z,5.63
2023-05-21T07:38:06.263Z,6.00
2023-05-21T07:41:09.562Z,5.93
2023-05-21T07:44:12.766Z,6.07
2023-05-21T07:47:17.301Z,6.40
2023-05-21T07:50:20.514Z,5.57
2023-05-21T07:53:24.034Z,5.97
2023-05-21T07:56:27.246Z,5.90
2023-05-21T07:59:30.868Z,5.87
2023-05-21T08:02:35.738Z,5.70
2023-05-21T08:05:39.383Z,5.88
2023-05-21T08:08:42.709Z,6.50
2023-05-21T08:11:45.951Z,5.63
2023-05-21T08:14:49.179Z,5.80
2023-05-21T08:17:53.791Z,5.85
2023-05-21T08:20:57.067Z,6.13
2023-05-21T08:24:02.707Z,5.55
2023-05-21T08:27:06.460Z,5.65
2023-05-21T08:30:11.432Z,5.82
2023-05-21T08:33:16.040Z,6.13
2023-05-21T08:36:19.784Z,5.47
2023-05-21T08:39:22.994Z,6.28
2023-05-21T08:45:41.512Z,5.80
2023-05-21T08:48:46.236Z,5.28
2023-05-21T08:51:50.238Z,6.47
2023-05-21T08:54:54.128Z,6.15
2023-05-21T08:57:57.330Z,6.70
2023-05-21T09:01:00.651Z,6.13
2023-05-21T09:04:19.593Z,6.07
2023-05-21T09:07:24.106Z,6.13
2023-05-21T09:10:30.833Z,6.63
2023-05-21T09:13:34.454Z,6.50
2023-05-21T09:16:38.645Z,6.80
2023-05-21T09:20:07.502Z,6.25
2023-05-21T09:23:12.510Z,6.20
2023-05-21T09:26:15.741Z,7.40
2023-05-21T09:29:18.975Z,7.05
2023-05-21T09:32:22.234Z,6.47
2023-05-21T09:35:26.797Z,6.65
2023-05-21T09:38:30.418Z,6.55
2023-05-21T09:41:34.924Z,5.88
2023-05-21T09:44:38.131Z,5.95
2023-05-21T09:47:44.761Z,6.22
2023-05-21T09:50:49.484Z,6.13
2023-05-21T09:53:53.403Z,6.32
2023-05-21T09:56:56.723Z,6.28
2023-05-21T10:00:00.020Z,7.10
2023-05-21T10:03:03.679Z,5.97
2023-05-21T10:06:09.990Z,6.45
2023-05-21T10:09:13.529Z,6.38
2023-05-21T10:12:19.923Z,7.07
2023-05-21T10:15:25.327Z,5.70
2023-05-21T10:18:29.115Z,7.22
2023-05-21T10:21:34.794Z,6.38
2023-05-21T10:24:38.811Z,6.55
2023-05-21T10:27:43.224Z,6.20
2023-05-21T10:30:46.484Z,6.20
2023-05-21T10:33:50.328Z,5.60
2023-05-21T10:36:57.264Z,6.15
2023-05-21T10:40:00.585Z,6.63
2023-05-21T10:43:21.920Z,7.53
2023-05-21T10:46:43.898Z,6.45
2023-05-21T10:49:58.002Z,5.80
2023-05-21T10:53:09.935Z,5.25
2023-05-21T10:56:19.260Z,5.28
2023-05-21T10:59:28.680Z,5.60
2023-05-21T11:02:32.040Z,5.70
2023-05-21T11:05:42.380Z,5.32
2023-05-21T11:08:49.311Z,5.90
2023-05-21T11:11:53.187Z,5.60
2023-05-21T11:14:59.919Z,5.53
2023-05-21T11:18:03.223Z,5.53
2023-05-21T11:21:06.899Z,5.82
2023-05-21T11:24:20.054Z,5.80
2023-05-21T11:27:34.318Z,5.18
2023-05-21T11:30:38.978Z,5.40
2023-05-21T11:33:44.203Z,5.25
2023-05-21T11:36:47.935Z,5.22
2023-05-21T11:39:53.112Z,5.45
2023-05-21T11:42:57.064Z,5.70
2023-05-21T11:46:28.991Z,5.88
2023-05-21T11:49:32.483Z,6.07
2023-05-21T11:52:35.796Z,6.38
2023-05-21T11:55:43.508Z,5.93
2023-05-21T11:58:47.231Z,7.05
2023-05-21T12:01:51.770Z,6.07
2023-05-21T12:04:55.835Z,5.90
2023-05-21T12:07:59.044Z,7.00
2023-05-21T12:11:02.710Z,7.25
2023-05-21T12:14:08.433Z,8.90
2023-05-21T12:17:13.972Z,11.13
2023-05-21T12:20:17.458Z,6.82
2023-05-21T12:23:21.562Z,7.00
2023-05-21T12:26:26.411Z,6.43
2023-05-21T12:29:30.179Z,6.47
2023-05-21T12:32:34.906Z,7.05
2023-05-21T12:35:38.959Z,7.90
2023-05-21T12:38:42.280Z,6.35
2023-05-21T12:41:45.531Z,5.47
2023-05-21T12:44:49.801Z,6.60
2023-05-21T12:47:56.293Z,5.70
2023-05-21T12:51:00.716Z,6.30
2023-05-21T12:54:03.952Z,6.15
2023-05-21T12:57:19.598Z,5.68
2023-05-21T13:00:25.307Z,6.13
2023-05-21T13:03:29.944Z,5.15
2023-05-21T13:06:43.049Z,6.05
2023-05-21T13:09:46.282Z,6.03
2023-05-21T13:12:49.496Z,6.25
2023-05-21T13:15:54.606Z,10.90
2023-05-21T13:18:59.221Z,6.18
2023-05-21T13:22:02.460Z,6.40
2023-05-21T13:25:05.938Z,5.13
2023-05-21T13:28:10.403Z,5.45
2023-05-21T13:31:15.560Z,5.20
2023-05-21T13:34:20.282Z,5.90
2023-05-21T13:37:23.485Z,5.65
2023-05-21T13:40:26.721Z,5.93
2023-05-21T13:43:30.021Z,5.50
2023-05-21T13:46:33.313Z,5.22
2023-05-21T13:49:38.207Z,5.78
2023-05-21T13:52:41.573Z,5.70
2023-05-21T13:55:45.456Z,5.78
2023-05-21T13:58:48.673Z,5.82
2023-05-21T14:01:52.397Z,5.57
2023-05-21T14:04:56.997Z,5.80
2023-05-21T14:08:00.522Z,5.53
2023-05-21T14:11:04.965Z,5.43
2023-05-21T14:14:08.324Z,5.10
2023-05-21T14:17:11.560Z,5.53
2023-05-21T14:20:16.186Z,5.35
2023-05-21T14:23:19.404Z,5.10
2023-05-21T14:26:22.670Z,5.68
2023-05-21T14:29:25.954Z,5.20
2023-05-21T14:32:29.296Z,5.25
2023-05-21T14:35:33.992Z,5.32
2023-05-21T14:38:37.282Z,5.80
2023-05-21T14:41:40.845Z,5.57
2023-05-21T14:44:44.062Z,4.90
2023-05-21T14:47:48.661Z,6.07
2023-05-21T14:50:53.432Z,4.93
2023-05-21T14:53:57.612Z,5.80
2023-05-21T14:57:00.920Z,5.53
2023-05-21T15:00:04.196Z,4.93
2023-05-21T15:03:07.494Z,5.70
2023-05-21T15:06:12.154Z,5.43
2023-05-21T15:09:15.410Z,6.22
2023-05-21T15:12:18.636Z,4.50
2023-05-21T15:15:21.952Z,5.25
2023-05-21T15:18:25.430Z,5.15
2023-05-21T15:21:29.996Z,5.57
2023-05-21T15:24:33.254Z,5.93
2023-05-21T15:27:36.807Z,5.18
2023-05-21T15:30:40.057Z,5.28
2023-05-21T15:33:43.273Z,5.75
2023-05-21T15:36:47.833Z,5.35
2023-05-21T15:39:51.054Z,5.47
2023-05-21T15:42:54.387Z,5.75
2023-05-21T15:45:57.687Z,5.25
2023-05-21T15:49:00.916Z,4.00
2023-05-21T15:52:05.630Z,5.32
2023-05-21T15:55:09.160Z,5.03
2023-05-21T15:58:12.482Z,5.88
2023-05-21T16:01:15.764Z,5.60
2023-05-21T16:04:20.171Z,5.50
2023-05-21T16:07:25.122Z,4.95
2023-05-21T16:10:28.403Z,5.72
2023-05-21T16:13:31.619Z,4.85
2023-05-21T16:16:35.789Z,4.50
2023-05-21T16:19:39.099Z,5.47
2023-05-21T16:22:43.683Z,4.72
2023-05-21T16:25:46.916Z,5.57
2023-05-21T16:28:50.184Z,5.78
2023-05-21T16:31:53.470Z,4.78
2023-05-21T16:34:56.782Z,4.63
2023-05-21T16:38:01.692Z,5.22
2023-05-21T16:41:04.994Z,5.03
2023-05-21T16:44:08.208Z,5.10
2023-05-21T16:47:11.497Z,5.45
2023-05-21T16:50:14.736Z,4.65
2023-05-21T16:53:19.311Z,4.40
2023-05-21T16:56:22.898Z,4.55
2023-05-21T16:59:26.138Z,4.35
2023-05-21T17:02:29.490Z,5.15
2023-05-21T17:05:32.798Z,4.57
2023-05-21T17:08:37.362Z,4.68
2023-05-21T17:11:43.565Z,4.50
2023-05-21T17:14:46.812Z,5.38
2023-05-21T17:17:50.038Z,4.68
2023-05-21T17:20:53.298Z,4.95
2023-05-21T17:23:57.836Z,5.60
2023-05-21T17:27:01.073Z,4.93
2023-05-21T17:30:04.826Z,5.18
2023-05-21T17:33:10.261Z,4.97
2023-05-21T17:36:14.403Z,4.43
2023-05-21T17:39:18.964Z,5.65
2023-05-21T17:42:22.323Z,5.43
2023-05-21T17:45:25.541Z,5.63
2023-05-21T17:48:28.752Z,5.72
2023-05-21T17:51:31.994Z,6.40
2023-05-21T17:54:36.559Z,6.15
2023-05-21T17:57:39.824Z,5.82
2023-05-21T18:00:43.090Z,5.45
2023-05-21T18:03:46.433Z,5.95
2023-05-21T18:06:49.724Z,6.47
2023-05-21T18:09:54.292Z,6.05
2023-05-21T18:12:57.546Z,6.22
2023-05-21T18:16:00.785Z,6.28
2023-05-21T18:19:05.806Z,6.30
2023-05-21T18:22:09.584Z,6.50
2023-05-21T18:25:14.247Z,5.68
2023-05-21T18:28:17.453Z,7.30
2023-05-21T18:31:20.813Z,6.82
2023-05-21T18:34:24.028Z,6.82
2023-05-21T18:37:27.797Z,7.05
2023-05-21T18:40:33.211Z,6.95
2023-05-21T18:43:36.933Z,6.85
2023-05-21T18:46:40.162Z,6.90
2023-05-21T18:49:43.448Z,6.78
2023-05-21T18:52:46.995Z,6.82
2023-05-21T18:55:51.555Z,7.65
2023-05-21T18:58:54.768Z,7.43
2023-05-21T19:01:58.063Z,7.10
2023-05-21T19:05:01.835Z,6.88
2023-05-21T19:08:05.248Z,7.35
2023-05-21T19:11:09.842Z,7.80
2023-05-21T19:14:13.111Z,7.38
2023-05-21T19:17:16.408Z,7.47
2023-05-21T19:20:24.334Z,11.15
2023-05-21T19:23:27.971Z,8.27
2023-05-21T19:26:32.931Z,8.20
2023-05-21T19:29:36.222Z,8.20
2023-05-21T19:32:39.440Z,8.63
2023-05-21T19:35:43.327Z,8.95
2023-05-21T19:38:49.579Z,9.75
2023-05-21T19:41:54.146Z,9.30
2023-05-21T19:44:57.397Z,8.50
2023-05-21T19:48:00.684Z,8.82
2023-05-21T19:51:04.270Z,8.23
2023-05-21T19:54:07.898Z,7.43
2023-05-21T19:57:13.422Z,7.38
2023-05-21T20:00:17.191Z,8.27
2023-05-21T20:03:21.005Z,8.15
2023-05-21T20:06:24.382Z,8.45
2023-05-21T20:09:27.651Z,7.85
2023-05-21T20:12:32.289Z,8.75
2023-05-21T20:15:35.547Z,8.15
2023-05-21T20:18:38.800Z,9.32
2023-05-21T20:21:42.119Z,8.73
2023-05-21T20:24:45.851Z,8.45
2023-05-21T20:27:50.718Z,8.75
2023-05-21T20:30:54.594Z,9.15
2023-05-21T20:33:58.845Z,8.65
2023-05-21T20:37:02.405Z,8.60
2023-05-21T20:40:06.962Z,8.43
2023-05-21T20:43:13.749Z,8.43
2023-05-21T20:46:18.203Z,8.45
2023-05-21T20:49:24.734Z,9.38
2023-05-21T20:52:28.189Z,9.00
2023-05-21T20:55:34.585Z,10.27
2023-05-21T20:58:39.893Z,10.15
2023-05-21T21:01:43.224Z,9.77
2023-05-21T21:04:48.945Z,10.25
2023-05-21T21:07:55.512Z,9.40
2023-05-21T21:10:59.101Z,11.02
2023-05-21T21:14:03.762Z,10.30
2023-05-21T21:17:06.972Z,10.52
2023-05-21T21:20:12.655Z,10.10
2023-05-21T21:23:16.073Z,10.50
2023-05-21T21:26:19.395Z,10.33
2023-05-21T21:29:23.944Z,11.37
2023-05-21T21:32:27.435Z,10.00
2023-05-21T21:35:30.692Z,9.65
2023-05-21T21:38:33.893Z,9.82
2023-05-21T21:41:37.192Z,10.03
2023-05-21T21:44:42.138Z,9.73
2023-05-21T21:47:45.375Z,9.82
2023-05-21T21:50:48.584Z,9.63
2023-05-21T21:53:51.798Z,10.37
2023-05-21T21:56:55.097Z,10.70
2023-05-21T21:59:59.685Z,10.90
2023-05-21T22:03:03.012Z,9.90
2023-05-21T22:06:06.592Z,10.17
2023-05-21T22:09:09.902Z,10.07
2023-05-21T22:12:13.219Z,10.07
2023-05-21T22:15:23.853Z,10.73
2023-05-21T22:18:39.584Z,10.73
2023-05-21T22:21:46.276Z,9.57
2023-05-21T22:24:49.510Z,11.43
2023-05-21T22:27:52.913Z,11.50
2023-05-21T22:30:57.535Z,10.97
2023-05-21T22:34:00.846Z,13.10
2023-05-21T22:37:04.077Z,11.17
2023-05-21T22:40:08.339Z,11.30
2023-05-21T22:43:11.596Z,11.03
2023-05-21T22:46:16.224Z,11.47
2023-05-21T22:49:19.808Z,11.90
2023-05-21T22:52:23.245Z,12.20
2023-05-21T22:55:26.496Z,11.43
2023-05-21T22:58:29.715Z,10.77
2023-05-21T23:01:34.350Z,11.73
2023-05-21T23:04:43.788Z,10.47
2023-05-21T23:07:47.710Z,12.07
2023-05-21T23:10:50.935Z,11.53
2023-05-21T23:13:54.158Z,11.07
2023-05-21T23:17:01.787Z,12.20
2023-05-21T23:20:06.039Z,12.33
2023-05-21T23:23:09.295Z,12.23
2023-05-21T23:26:12.738Z,10.93
2023-05-21T23:29:15.957Z,11.53
2023-05-21T23:32:20.577Z,11.90
2023-05-21T23:35:23.799Z,12.37
2023-05-21T23:38:27.100Z,12.43
2023-05-21T23:41:30.324Z,12.50
2023-05-21T23:44:33.563Z,12.40
2023-05-21T23:47:38.204Z,11.97
2023-05-21T23:50:41.659Z,13.47
2023-05-21T23:53:44.984Z,12.27
2023-05-21T23:56:48.235Z,12.43
2023-05-21T23:59:51.489Z,11.77
